Three Mile, North Carolina
Current Conditions -  °F | °C
As of 10:35 AM on Friday 19 Dec 2014 (Local Time) from KTNB Reporting Station
Scattered Clouds Scattered Clouds  
Wind Chill: 29°   Ceiling: Unl
Heat Index: 37°   Visibility: 10mi
Dew Point: 15°   Wind: 12mph
Humidity: 41%   Direction: 290°WNW
Pressure: 30.13"   Gusts: NA
Location:  36.0227°N, 81.9499°W
Report Text: KTNB 191535Z AUTO 29010KT 10SM SCT032 03/M09 A3013 RMK AO2 T00261094
Loading
Personal Weather Stations






























Interactive Weather Map New forecast layout! Learn more

10-Day Weather Forecast

Advertisements
Track Severe Weather on mobile